sensor_id;sensor_type;location;lat;lon;timestamp;temperature;humidity
81726;DHT22;71135;16.738;-14.648;2023-07-31T00:02:14;17.10;74.50
81726;DHT22;71135;16.738;-14.648;2023-07-31T00:04:43;17.10;74.50
81726;DHT22;71135;16.738;-14.648;2023-07-31T00:07:12;17.10;74.40
81726;DHT22;71135;16.738;-14.648;2023-07-31T00:09:41;17.10;74.40
81726;DHT22;71135;16.738;-14.648;2023-07-31T00:12:10;17.10;74.50
81726;DHT22;71135;16.738;-14.648;2023-07-31T00:14:39;17.10;74.50
81726;DHT22;71135;16.738;-14.648;2023-07-31T00:17:11;17.00;74.60
81726;DHT22;71135;16.738;-14.648;2023-07-31T00:19:40;17.10;74.60
81726;DHT22;71135;16.738;-14.648;2023-07-31T00:22:12;17.00;74.60
81726;DHT22;71135;16.738;-14.648;2023-07-31T00:24:41;17.10;74.60
81726;DHT22;71135;16.738;-14.648;2023-07-31T00:27:10;17.10;74.70
81726;DHT22;71135;16.738;-14.648;2023-07-31T00:29:39;17.10;74.70
81726;DHT22;71135;16.738;-14.648;2023-07-31T00:32:11;17.20;74.70
81726;DHT22;71135;16.738;-14.648;2023-07-31T00:34:40;17.20;74.70
81726;DHT22;71135;16.738;-14.648;2023-07-31T00:37:10;17.20;74.60
81726;DHT22;71135;16.738;-14.648;2023-07-31T00:39:39;17.20;74.60
81726;DHT22;71135;16.738;-14.648;2023-07-31T00:42:08;17.20;74.60
81726;DHT22;71135;16.738;-14.648;2023-07-31T00:44:37;17.20;74.70
81726;DHT22;71135;16.738;-14.648;2023-07-31T00:47:06;17.30;74.70
81726;DHT22;71135;16.738;-14.648;2023-07-31T00:49:38;17.30;74.80
81726;DHT22;71135;16.738;-14.648;2023-07-31T00:52:10;17.40;75.00
81726;DHT22;71135;16.738;-14.648;2023-07-31T00:54:39;17.40;75.20
81726;DHT22;71135;16.738;-14.648;2023-07-31T00:57:09;17.40;75.20
81726;DHT22;71135;16.738;-14.648;2023-07-31T00:59:38;17.50;75.30
81726;DHT22;71135;16.738;-14.648;2023-07-31T01:02:08;17.50;75.40
81726;DHT22;71135;16.738;-14.648;2023-07-31T01:04:41;17.50;75.50
81726;DHT22;71135;16.738;-14.648;2023-07-31T01:07:14;17.50;75.60
81726;DHT22;71135;16.738;-14.648;2023-07-31T01:09:51;17.60;75.70
81726;DHT22;71135;16.738;-14.648;2023-07-31T01:12:23;17.70;75.90
81726;DHT22;71135;16.738;-14.648;2023-07-31T01:15:02;17.80;75.90
81726;DHT22;71135;16.738;-14.648;2023-07-31T01:17:32;17.80;75.90
81726;DHT22;71135;16.738;-14.648;2023-07-31T01:20:08;17.80;75.90
81726;DHT22;71135;16.738;-14.648;2023-07-31T01:23:04;17.80;75.80
81726;DHT22;71135;16.738;-14.648;2023-07-31T01:25:56;17.90;75.80
81726;DHT22;71135;16.738;-14.648;2023-07-31T01:28:33;18.00;75.70
81726;DHT22;71135;16.738;-14.648;2023-07-31T01:31:07;18.00;75.80
81726;DHT22;71135;16.738;-14.648;2023-07-31T01:33:39;18.00;75.80
81726;DHT22;71135;16.738;-14.648;2023-07-31T01:36:09;18.10;75.80
81726;DHT22;71135;16.738;-14.648;2023-07-31T01:38:39;18.10;75.90
81726;DHT22;71135;16.738;-14.648;2023-07-31T01:41:13;18.10;75.90
81726;DHT22;71135;16.738;-14.648;2023-07-31T01:43:46;18.10;75.90
81726;DHT22;71135;16.738;-14.648;2023-07-31T01:46:15;18.10;75.80
81726;DHT22;71135;16.738;-14.648;2023-07-31T01:48:46;18.10;75.90
81726;DHT22;71135;16.738;-14.648;2023-07-31T01:51:15;18.10;75.80
81726;DHT22;71135;16.738;-14.648;2023-07-31T01:53:45;18.10;75.80
81726;DHT22;71135;16.738;-14.648;2023-07-31T01:56:16;18.10;75.80
81726;DHT22;71135;16.738;-14.648;2023-07-31T01:58:45;18.10;75.80
81726;DHT22;71135;16.738;-14.648;2023-07-31T02:01:15;18.10;75.80
81726;DHT22;71135;16.738;-14.648;2023-07-31T02:03:44;18.10;75.90
81726;DHT22;71135;16.738;-14.648;2023-07-31T02:06:14;18.10;75.80
81726;DHT22;71135;16.738;-14.648;2023-07-31T02:08:44;18.10;75.90
81726;DHT22;71135;16.738;-14.648;2023-07-31T02:11:15;18.10;75.90
81726;DHT22;71135;16.738;-14.648;2023-07-31T02:13:45;18.10;75.90
81726;DHT22;71135;16.738;-14.648;2023-07-31T02:16:14;18.10;75.90
81726;DHT22;71135;16.738;-14.648;2023-07-31T02:18:43;18.20;75.90
81726;DHT22;71135;16.738;-14.648;2023-07-31T02:21:12;18.10;75.70
81726;DHT22;71135;16.738;-14.648;2023-07-31T02:23:42;18.10;75.70
81726;DHT22;71135;16.738;-14.648;2023-07-31T02:26:11;18.10;75.60
81726;DHT22;71135;16.738;-14.648;2023-07-31T02:28:44;18.00;75.70
81726;DHT22;71135;16.738;-14.648;2023-07-31T02:31:13;18.00;75.70
81726;DHT22;71135;16.738;-14.648;2023-07-31T02:33:42;18.00;75.70
81726;DHT22;71135;16.738;-14.648;2023-07-31T02:36:11;18.00;75.90
81726;DHT22;71135;16.738;-14.648;2023-07-31T02:38:40;18.00;75.90
81726;DHT22;71135;16.738;-14.648;2023-07-31T02:41:10;18.00;76.10
81726;DHT22;71135;16.738;-14.648;2023-07-31T02:43:39;18.00;76.10
81726;DHT22;71135;16.738;-14.648;2023-07-31T02:46:11;18.00;76.10
81726;DHT22;71135;16.738;-14.648;2023-07-31T02:48:41;18.00;76.00
81726;DHT22;71135;16.738;-14.648;2023-07-31T02:51:10;18.00;76.10
81726;DHT22;71135;16.738;-14.648;2023-07-31T02:53:39;18.00;76.10
81726;DHT22;71135;16.738;-14.648;2023-07-31T02:56:08;18.00;76.00
81726;DHT22;71135;16.738;-14.648;2023-07-31T02:58:37;18.00;76.00
81726;DHT22;71135;16.738;-14.648;2023-07-31T03:01:07;18.00;76.00
81726;DHT22;71135;16.738;-14.648;2023-07-31T03:03:39;18.00;76.00
81726;DHT22;71135;16.738;-14.648;2023-07-31T03:06:08;18.00;75.90
81726;DHT22;71135;16.738;-14.648;2023-07-31T03:08:37;18.00;75.90
81726;DHT22;71135;16.738;-14.648;2023-07-31T03:11:06;18.00;75.80
81726;DHT22;71135;16.738;-14.648;2023-07-31T03:13:36;18.00;75.90
81726;DHT22;71135;16.738;-14.648;2023-07-31T03:16:05;18.00;75.80
81726;DHT22;71135;16.738;-14.648;2023-07-31T03:18:34;18.00;75.70
81726;DHT22;71135;16.738;-14.648;2023-07-31T03:21:06;18.00;75.80
81726;DHT22;71135;16.738;-14.648;2023-07-31T03:23:35;18.00;75.90
81726;DHT22;71135;16.738;-14.648;2023-07-31T03:26:06;18.00;75.90
81726;DHT22;71135;16.738;-14.648;2023-07-31T03:28:36;18.00;75.90
81726;DHT22;71135;16.738;-14.648;2023-07-31T03:31:05;17.90;76.00
81726;DHT22;71135;16.738;-14.648;2023-07-31T03:33:34;17.90;76.00
81726;DHT22;71135;16.738;-14.648;2023-07-31T03:36:07;17.90;76.10
81726;DHT22;71135;16.738;-14.648;2023-07-31T03:38:36;17.90;76.10
81726;DHT22;71135;16.738;-14.648;2023-07-31T03:41:05;17.90;76.10
81726;DHT22;71135;16.738;-14.648;2023-07-31T03:43:36;17.90;76.00
81726;DHT22;71135;16.738;-14.648;2023-07-31T03:46:06;17.90;76.10
81726;DHT22;71135;16.738;-14.648;2023-07-31T03:48:36;17.80;76.10
81726;DHT22;71135;16.738;-14.648;2023-07-31T03:51:08;17.80;76.10
81726;DHT22;71135;16.738;-14.648;2023-07-31T03:53:37;17.80;76.10
81726;DHT22;71135;16.738;-14.648;2023-07-31T03:56:06;17.80;76.10
81726;DHT22;71135;16.738;-14.648;2023-07-31T03:58:35;17.80;76.10
81726;DHT22;71135;16.738;-14.648;2023-07-31T04:01:04;17.80;76.10
81726;DHT22;71135;16.738;-14.648;2023-07-31T04:03:34;17.80;76.10
81726;DHT22;71135;16.738;-14.648;2023-07-31T04:06:03;17.80;76.10
81726;DHT22;71135;16.738;-14.648;2023-07-31T04:08:35;17.80;76.10
81726;DHT22;71135;16.738;-14.648;2023-07-31T04:11:05;17.80;76.00
81726;DHT22;71135;16.738;-14.648;2023-07-31T04:13:34;17.80;75.90
81726;DHT22;71135;16.738;-14.648;2023-07-31T04:16:03;17.80;75.90
81726;DHT22;71135;16.738;-14.648;2023-07-31T04:18:33;17.80;75.90
81726;DHT22;71135;16.738;-14.648;2023-07-31T04:21:02;17.80;75.90
81726;DHT22;71135;16.738;-14.648;2023-07-31T04:23:31;17.80;75.90
81726;DHT22;71135;16.738;-14.648;2023-07-31T04:26:03;17.80;75.90
81726;DHT22;71135;16.738;-14.648;2023-07-31T04:28:32;17.80;75.90
81726;DHT22;71135;16.738;-14.648;2023-07-31T04:31:01;17.80;75.80
81726;DHT22;71135;16.738;-14.648;2023-07-31T04:33:30;17.80;75.70
81726;DHT22;71135;16.738;-14.648;2023-07-31T04:35:59;17.80;75.70
81726;DHT22;71135;16.738;-14.648;2023-07-31T04:38:29;17.80;75.80
81726;DHT22;71135;16.738;-14.648;2023-07-31T04:40:58;17.80;75.80
81726;DHT22;71135;16.738;-14.648;2023-07-31T04:43:29;17.80;75.80
81726;DHT22;71135;16.738;-14.648;2023-07-31T04:45:59;17.80;75.80
81726;DHT22;71135;16.738;-14.648;2023-07-31T04:48:28;17.80;75.80
81726;DHT22;71135;16.738;-14.648;2023-07-31T04:50:57;17.80;75.80
81726;DHT22;71135;16.738;-14.648;2023-07-31T04:53:26;17.80;75.70
81726;DHT22;71135;16.738;-14.648;2023-07-31T04:55:55;17.80;75.80
81726;DHT22;71135;16.738;-14.648;2023-07-31T04:58:24;17.80;75.70
81726;DHT22;71135;16.738;-14.648;2023-07-31T05:00:56;17.80;75.70
81726;DHT22;71135;16.738;-14.648;2023-07-31T05:03:25;17.80;75.80
81726;DHT22;71135;16.738;-14.648;2023-07-31T05:05:55;17.80;75.80
81726;DHT22;71135;16.738;-14.648;2023-07-31T05:08:24;17.80;75.70
81726;DHT22;71135;16.738;-14.648;2023-07-31T05:10:53;17.90;75.60
81726;DHT22;71135;16.738;-14.648;2023-07-31T05:13:22;17.90;75.70
81726;DHT22;71135;16.738;-14.648;2023-07-31T05:15:51;17.90;75.60
81726;DHT22;71135;16.738;-14.648;2023-07-31T05:18:23;18.00;75.50
81726;DHT22;71135;16.738;-14.648;2023-07-31T05:20:52;18.00;75.50
81726;DHT22;71135;16.738;-14.648;2023-07-31T05:23:21;18.00;75.50
81726;DHT22;71135;16.738;-14.648;2023-07-31T05:25:51;17.90;75.50
81726;DHT22;71135;16.738;-14.648;2023-07-31T05:28:21;17.90;75.50
81726;DHT22;71135;16.738;-14.648;2023-07-31T05:30:50;17.90;75.50
81726;DHT22;71135;16.738;-14.648;2023-07-31T05:33:19;17.90;75.60
81726;DHT22;71135;16.738;-14.648;2023-07-31T05:35:51;17.90;75.50
81726;DHT22;71135;16.738;-14.648;2023-07-31T05:38:20;17.90;75.50
81726;DHT22;71135;16.738;-14.648;2023-07-31T05:40:50;17.90;75.60
81726;DHT22;71135;16.738;-14.648;2023-07-31T05:43:19;17.90;75.70
81726;DHT22;71135;16.738;-14.648;2023-07-31T05:45:48;18.00;75.70
81726;DHT22;71135;16.738;-14.648;2023-07-31T05:48:17;18.00;75.70
81726;DHT22;71135;16.738;-14.648;2023-07-31T05:50:46;18.00;75.60
81726;DHT22;71135;16.738;-14.648;2023-07-31T05:53:18;18.00;75.70
81726;DHT22;71135;16.738;-14.648;2023-07-31T05:55:47;18.00;75.70
81726;DHT22;71135;16.738;-14.648;2023-07-31T05:58:17;18.00;75.60
81726;DHT22;71135;16.738;-14.648;2023-07-31T06:00:46;18.00;75.70
81726;DHT22;71135;16.738;-14.648;2023-07-31T06:03:15;18.00;75.60
81726;DHT22;71135;16.738;-14.648;2023-07-31T06:05:44;17.90;75.70
81726;DHT22;71135;16.738;-14.648;2023-07-31T06:08:13;18.00;75.70
81726;DHT22;71135;16.738;-14.648;2023-07-31T06:10:45;18.00;75.70
81726;DHT22;71135;16.738;-14.648;2023-07-31T06:13:14;18.00;75.60
81726;DHT22;71135;16.738;-14.648;2023-07-31T06:15:43;18.00;75.50
81726;DHT22;71135;16.738;-14.648;2023-07-31T06:18:12;18.00;75.60
81726;DHT22;71135;16.738;-14.648;2023-07-31T06:20:42;18.00;75.70
81726;DHT22;71135;16.738;-14.648;2023-07-31T06:23:11;18.00;75.60
81726;DHT22;71135;16.738;-14.648;2023-07-31T06:25:40;18.00;75.50
81726;DHT22;71135;16.738;-14.648;2023-07-31T06:28:12;18.00;75.40
81726;DHT22;71135;16.738;-14.648;2023-07-31T06:30:41;18.00;75.40
81726;DHT22;71135;16.738;-14.648;2023-07-31T06:33:10;17.90;75.30
81726;DHT22;71135;16.738;-14.648;2023-07-31T06:35:39;17.80;75.40
81726;DHT22;71135;16.738;-14.648;2023-07-31T06:38:08;17.80;75.60
81726;DHT22;71135;16.738;-14.648;2023-07-31T06:40:37;17.80;75.70
81726;DHT22;71135;16.738;-14.648;2023-07-31T06:43:07;17.70;75.70
81726;DHT22;71135;16.738;-14.648;2023-07-31T06:45:39;17.60;75.90
81726;DHT22;71135;16.738;-14.648;2023-07-31T06:48:08;17.60;76.10
81726;DHT22;71135;16.738;-14.648;2023-07-31T06:50:37;17.60;76.20
81726;DHT22;71135;16.738;-14.648;2023-07-31T06:53:06;17.60;76.20
81726;DHT22;71135;16.738;-14.648;2023-07-31T06:55:35;17.70;76.20
81726;DHT22;71135;16.738;-14.648;2023-07-31T06:58:05;17.80;76.30
81726;DHT22;71135;16.738;-14.648;2023-07-31T07:00:34;17.80;76.20
81726;DHT22;71135;16.738;-14.648;2023-07-31T07:03:06;17.80;76.20
81726;DHT22;71135;16.738;-14.648;2023-07-31T07:05:35;17.90;76.20
81726;DHT22;71135;16.738;-14.648;2023-07-31T07:08:04;17.90;76.10
81726;DHT22;71135;16.738;-14.648;2023-07-31T07:10:33;17.90;76.00
81726;DHT22;71135;16.738;-14.648;2023-07-31T07:13:02;18.00;76.00
81726;DHT22;71135;16.738;-14.648;2023-07-31T07:15:31;18.00;76.10
81726;DHT22;71135;16.738;-14.648;2023-07-31T07:18:01;18.00;76.10
81726;DHT22;71135;16.738;-14.648;2023-07-31T07:20:32;18.00;76.10
81726;DHT22;71135;16.738;-14.648;2023-07-31T07:23:01;18.10;76.00
81726;DHT22;71135;16.738;-14.648;2023-07-31T07:25:31;18.10;76.10
81726;DHT22;71135;16.738;-14.648;2023-07-31T07:28:00;18.20;76.00
81726;DHT22;71135;16.738;-14.648;2023-07-31T07:30:29;18.20;75.90
81726;DHT22;71135;16.738;-14.648;2023-07-31T07:32:58;18.20;75.90
81726;DHT22;71135;16.738;-14.648;2023-07-31T07:35:27;18.20;76.00
81726;DHT22;71135;16.738;-14.648;2023-07-31T07:37:59;18.30;75.90
81726;DHT22;71135;16.738;-14.648;2023-07-31T07:40:28;18.30;75.90
81726;DHT22;71135;16.738;-14.648;2023-07-31T07:42:57;18.30;75.80
81726;DHT22;71135;16.738;-14.648;2023-07-31T07:45:27;18.30;75.90
81726;DHT22;71135;16.738;-14.648;2023-07-31T07:47:56;18.30;76.00
81726;DHT22;71135;16.738;-14.648;2023-07-31T07:50:25;18.40;76.00
81726;DHT22;71135;16.738;-14.648;2023-07-31T07:52:54;18.40;76.00
81726;DHT22;71135;16.738;-14.648;2023-07-31T07:55:26;18.50;76.00
81726;DHT22;71135;16.738;-14.648;2023-07-31T07:57:55;18.50;75.90
81726;DHT22;71135;16.738;-14.648;2023-07-31T08:00:24;18.50;75.80
81726;DHT22;71135;16.738;-14.648;2023-07-31T08:02:54;18.50;76.00
81726;DHT22;71135;16.738;-14.648;2023-07-31T08:05:24;18.50;75.90
81726;DHT22;71135;16.738;-14.648;2023-07-31T08:07:53;18.50;76.00
81726;DHT22;71135;16.738;-14.648;2023-07-31T08:10:22;18.50;76.10
81726;DHT22;71135;16.738;-14.648;2023-07-31T08:12:54;18.60;76.20
81726;DHT22;71135;16.738;-14.648;2023-07-31T08:15:23;18.60;76.10
81726;DHT22;71135;16.738;-14.648;2023-07-31T08:17:52;18.60;76.10
81726;DHT22;71135;16.738;-14.648;2023-07-31T08:20:22;18.60;76.10
81726;DHT22;71135;16.738;-14.648;2023-07-31T08:22:51;18.60;76.20
81726;DHT22;71135;16.738;-14.648;2023-07-31T08:25:20;18.60;76.20
81726;DHT22;71135;16.738;-14.648;2023-07-31T08:27:49;18.60;76.20
81726;DHT22;71135;16.738;-14.648;2023-07-31T08:30:22;18.60;76.20
81726;DHT22;71135;16.738;-14.648;2023-07-31T08:32:51;18.70;76.20
81726;DHT22;71135;16.738;-14.648;2023-07-31T08:35:20;18.70;76.30
81726;DHT22;71135;16.738;-14.648;2023-07-31T08:37:49;18.80;76.40
81726;DHT22;71135;16.738;-14.648;2023-07-31T08:40:21;18.80;76.30
81726;DHT22;71135;16.738;-14.648;2023-07-31T08:42:54;18.90;76.30
81726;DHT22;71135;16.738;-14.648;2023-07-31T08:45:31;19.00;76.30
81726;DHT22;71135;16.738;-14.648;2023-07-31T08:48:01;19.10;76.20
81726;DHT22;71135;16.738;-14.648;2023-07-31T08:50:30;19.20;76.10
81726;DHT22;71135;16.738;-14.648;2023-07-31T08:53:00;19.20;76.00
81726;DHT22;71135;16.738;-14.648;2023-07-31T08:55:31;19.30;76.00
81726;DHT22;71135;16.738;-14.648;2023-07-31T08:58:04;19.40;75.80
81726;DHT22;71135;16.738;-14.648;2023-07-31T09:00:36;19.40;75.70
81726;DHT22;71135;16.738;-14.648;2023-07-31T09:03:09;19.30;75.90
81726;DHT22;71135;16.738;-14.648;2023-07-31T09:05:39;19.30;75.90
81726;DHT22;71135;16.738;-14.648;2023-07-31T09:08:11;19.30;75.80
81726;DHT22;71135;16.738;-14.648;2023-07-31T09:10:41;19.40;75.90
81726;DHT22;71135;16.738;-14.648;2023-07-31T09:13:12;19.40;75.90
81726;DHT22;71135;16.738;-14.648;2023-07-31T09:15:46;19.50;75.90
81726;DHT22;71135;16.738;-14.648;2023-07-31T09:18:21;19.50;76.00
81726;DHT22;71135;16.738;-14.648;2023-07-31T09:21:49;19.50;76.00
81726;DHT22;71135;16.738;-14.648;2023-07-31T09:24:37;19.50;75.80
81726;DHT22;71135;16.738;-14.648;2023-07-31T09:27:41;19.50;75.80
81726;DHT22;71135;16.738;-14.648;2023-07-31T09:33:57;19.50;75.90
81726;DHT22;71135;16.738;-14.648;2023-07-31T09:36:42;19.50;76.00
81726;DHT22;71135;16.738;-14.648;2023-07-31T09:39:32;19.50;76.00
81726;DHT22;71135;16.738;-14.648;2023-07-31T09:42:05;19.50;76.10
81726;DHT22;71135;16.738;-14.648;2023-07-31T09:44:40;19.50;76.10
81726;DHT22;71135;16.738;-14.648;2023-07-31T09:47:29;19.60;76.20
81726;DHT22;71135;16.738;-14.648;2023-07-31T09:50:14;19.70;76.10
81726;DHT22;71135;16.738;-14.648;2023-07-31T09:52:50;19.70;76.10
81726;DHT22;71135;16.738;-14.648;2023-07-31T09:56:00;19.70;76.20
81726;DHT22;71135;16.738;-14.648;2023-07-31T09:59:38;19.70;76.10
81726;DHT22;71135;16.738;-14.648;2023-07-31T10:02:15;19.70;76.10
81726;DHT22;71135;16.738;-14.648;2023-07-31T10:04:50;19.70;76.10
81726;DHT22;71135;16.738;-14.648;2023-07-31T10:07:45;19.70;76.20
81726;DHT22;71135;16.738;-14.648;2023-07-31T10:10:22;19.70;76.20
81726;DHT22;71135;16.738;-14.648;2023-07-31T10:12:57;19.70;76.10
81726;DHT22;71135;16.738;-14.648;2023-07-31T10:16:03;19.70;76.20
81726;DHT22;71135;16.738;-14.648;2023-07-31T10:18:41;19.70;76.20
81726;DHT22;71135;16.738;-14.648;2023-07-31T10:21:14;19.60;76.40
81726;DHT22;71135;16.738;-14.648;2023-07-31T10:23:51;19.70;76.50
81726;DHT22;71135;16.738;-14.648;2023-07-31T10:26:25;19.70;76.50
81726;DHT22;71135;16.738;-14.648;2023-07-31T10:29:30;19.70;76.40
81726;DHT22;71135;16.738;-14.648;2023-07-31T10:32:10;19.70;76.50
81726;DHT22;71135;16.738;-14.648;2023-07-31T10:34:40;19.90;76.60
81726;DHT22;71135;16.738;-14.648;2023-07-31T10:37:25;20.10;76.60
81726;DHT22;71135;16.738;-14.648;2023-07-31T11:58:35;21.30;72.50
81726;DHT22;71135;16.738;-14.648;2023-07-31T12:01:20;21.00;73.30
81726;DHT22;71135;16.738;-14.648;2023-07-31T12:03:50;20.70;74.10
81726;DHT22;71135;16.738;-14.648;2023-07-31T12:06:20;20.60;74.60
81726;DHT22;71135;16.738;-14.648;2023-07-31T12:08:51;20.50;74.90
81726;DHT22;71135;16.738;-14.648;2023-07-31T12:11:20;20.50;75.10
81726;DHT22;71135;16.738;-14.648;2023-07-31T12:13:52;20.50;75.20
81726;DHT22;71135;16.738;-14.648;2023-07-31T12:16:26;20.60;75.10
81726;DHT22;71135;16.738;-14.648;2023-07-31T12:18:55;20.60;74.70
81726;DHT22;71135;16.738;-14.648;2023-07-31T12:21:27;20.60;74.70
81726;DHT22;71135;16.738;-14.648;2023-07-31T12:24:01;20.50;74.80
81726;DHT22;71135;16.738;-14.648;2023-07-31T12:26:34;20.50;74.90
81726;DHT22;71135;16.738;-14.648;2023-07-31T12:30:31;20.50;74.90
81726;DHT22;71135;16.738;-14.648;2023-07-31T12:36:34;20.50;74.80
81726;DHT22;71135;16.738;-14.648;2023-07-31T13:09:53;21.10;73.90
81726;DHT22;71135;16.738;-14.648;2023-07-31T13:46:34;21.30;72.30
81726;DHT22;71135;16.738;-14.648;2023-07-31T13:49:03;21.40;72.30
81726;DHT22;71135;16.738;-14.648;2023-07-31T13:51:32;21.50;72.00
81726;DHT22;71135;16.738;-14.648;2023-07-31T13:54:01;21.50;72.00
81726;DHT22;71135;16.738;-14.648;2023-07-31T13:56:30;21.50;71.70
81726;DHT22;71135;16.738;-14.648;2023-07-31T13:59:00;21.50;71.80
81726;DHT22;71135;16.738;-14.648;2023-07-31T14:01:33;21.50;71.90
81726;DHT22;71135;16.738;-14.648;2023-07-31T14:04:02;21.50;71.90
81726;DHT22;71135;16.738;-14.648;2023-07-31T14:06:32;21.40;71.90
81726;DHT22;71135;16.738;-14.648;2023-07-31T14:09:01;21.40;71.50
81726;DHT22;71135;16.738;-14.648;2023-07-31T14:11:31;21.40;71.30
81726;DHT22;71135;16.738;-14.648;2023-07-31T14:14:00;21.30;71.50
81726;DHT22;71135;16.738;-14.648;2023-07-31T14:16:33;21.20;71.40
81726;DHT22;71135;16.738;-14.648;2023-07-31T14:19:02;21.20;71.60
81726;DHT22;71135;16.738;-14.648;2023-07-31T14:21:31;21.10;71.80
81726;DHT22;71135;16.738;-14.648;2023-07-31T14:24:01;21.10;72.10
81726;DHT22;71135;16.738;-14.648;2023-07-31T14:26:30;21.10;71.90
81726;DHT22;71135;16.738;-14.648;2023-07-31T14:29:04;21.10;71.80
81726;DHT22;71135;16.738;-14.648;2023-07-31T14:31:36;21.10;71.80
81726;DHT22;71135;16.738;-14.648;2023-07-31T14:37:42;21.00;72.20
81726;DHT22;71135;16.738;-14.648;2023-07-31T14:40:12;20.80;72.80
81726;DHT22;71135;16.738;-14.648;2023-07-31T14:42:41;20.60;73.30
81726;DHT22;71135;16.738;-14.648;2023-07-31T14:49:47;20.50;73.80
81726;DHT22;71135;16.738;-14.648;2023-07-31T14:52:16;20.30;74.40
81726;DHT22;71135;16.738;-14.648;2023-07-31T14:54:45;20.30;74.60
81726;DHT22;71135;16.738;-14.648;2023-07-31T14:57:15;20.30;74.70
81726;DHT22;71135;16.738;-14.648;2023-07-31T14:59:44;20.30;74.70
81726;DHT22;71135;16.738;-14.648;2023-07-31T15:02:15;20.20;74.70
81726;DHT22;71135;16.738;-14.648;2023-07-31T15:04:47;20.20;74.80
81726;DHT22;71135;16.738;-14.648;2023-07-31T15:07:16;20.20;74.90
81726;DHT22;71135;16.738;-14.648;2023-07-31T15:09:45;20.30;74.80
81726;DHT22;71135;16.738;-14.648;2023-07-31T15:12:15;20.30;74.80
81726;DHT22;71135;16.738;-14.648;2023-07-31T15:14:44;20.30;74.80
81726;DHT22;71135;16.738;-14.648;2023-07-31T15:17:13;20.40;74.50
81726;DHT22;71135;16.738;-14.648;2023-07-31T15:19:42;20.40;74.30
81726;DHT22;71135;16.738;-14.648;2023-07-31T15:22:14;20.40;74.10
81726;DHT22;71135;16.738;-14.648;2023-07-31T15:24:44;20.30;74.00
81726;DHT22;71135;16.738;-14.648;2023-07-31T15:27:15;20.40;74.10
81726;DHT22;71135;16.738;-14.648;2023-07-31T15:29:44;20.40;74.10
81726;DHT22;71135;16.738;-14.648;2023-07-31T15:32:13;20.40;74.10
81726;DHT22;71135;16.738;-14.648;2023-07-31T15:34:44;20.40;74.10
81726;DHT22;71135;16.738;-14.648;2023-07-31T15:37:16;20.50;74.20
81726;DHT22;71135;16.738;-14.648;2023-07-31T15:39:46;20.50;74.10
81726;DHT22;71135;16.738;-14.648;2023-07-31T15:42:15;20.40;74.10
81726;DHT22;71135;16.738;-14.648;2023-07-31T15:44:45;20.40;73.90
81726;DHT22;71135;16.738;-14.648;2023-07-31T15:47:14;20.30;74.10
81726;DHT22;71135;16.738;-14.648;2023-07-31T15:49:43;20.30;74.20
81726;DHT22;71135;16.738;-14.648;2023-07-31T15:52:16;20.30;74.10
81726;DHT22;71135;16.738;-14.648;2023-07-31T15:54:45;20.30;74.00
81726;DHT22;71135;16.738;-14.648;2023-07-31T15:57:14;20.30;73.90
81726;DHT22;71135;16.738;-14.648;2023-07-31T15:59:43;20.30;73.90
81726;DHT22;71135;16.738;-14.648;2023-07-31T16:02:13;20.30;74.00
81726;DHT22;71135;16.738;-14.648;2023-07-31T16:04:42;20.30;73.90
81726;DHT22;71135;16.738;-14.648;2023-07-31T16:07:11;20.20;74.00
81726;DHT22;71135;16.738;-14.648;2023-07-31T16:09:44;20.10;73.90
81726;DHT22;71135;16.738;-14.648;2023-07-31T16:12:13;20.10;74.10
81726;DHT22;71135;16.738;-14.648;2023-07-31T16:14:42;20.10;74.30
81726;DHT22;71135;16.738;-14.648;2023-07-31T16:17:11;20.10;74.20
81726;DHT22;71135;16.738;-14.648;2023-07-31T16:19:41;20.10;74.10
81726;DHT22;71135;16.738;-14.648;2023-07-31T16:22:10;20.10;74.20
81726;DHT22;71135;16.738;-14.648;2023-07-31T16:24:39;20.10;74.10
81726;DHT22;71135;16.738;-14.648;2023-07-31T16:27:11;20.10;74.00
81726;DHT22;71135;16.738;-14.648;2023-07-31T16:29:41;20.10;74.20
81726;DHT22;71135;16.738;-14.648;2023-07-31T16:32:10;20.00;74.20
81726;DHT22;71135;16.738;-14.648;2023-07-31T16:34:39;20.00;74.10
81726;DHT22;71135;16.738;-14.648;2023-07-31T16:37:08;20.00;74.20
81726;DHT22;71135;16.738;-14.648;2023-07-31T16:39:38;20.00;74.40
81726;DHT22;71135;16.738;-14.648;2023-07-31T16:42:12;20.00;74.50
81726;DHT22;71135;16.738;-14.648;2023-07-31T16:44:41;20.00;74.60
81726;DHT22;71135;16.738;-14.648;2023-07-31T16:47:10;20.00;74.70
81726;DHT22;71135;16.738;-14.648;2023-07-31T16:49:39;20.00;74.80
81726;DHT22;71135;16.738;-14.648;2023-07-31T18:31:29;19.50;75.20
81726;DHT22;71135;16.738;-14.648;2023-07-31T18:34:03;19.30;75.60
81726;DHT22;71135;16.738;-14.648;2023-07-31T18:37:09;19.20;75.90
81726;DHT22;71135;16.738;-14.648;2023-07-31T19:25:56;18.60;77.40
81726;DHT22;71135;16.738;-14.648;2023-07-31T19:28:29;18.60;77.40
81726;DHT22;71135;16.738;-14.648;2023-07-31T19:30:58;18.60;77.20
81726;DHT22;71135;16.738;-14.648;2023-07-31T19:33:28;18.50;77.10
81726;DHT22;71135;16.738;-14.648;2023-07-31T19:35:58;18.50;76.80
81726;DHT22;71135;16.738;-14.648;2023-07-31T19:38:27;18.40;76.60
81726;DHT22;71135;16.738;-14.648;2023-07-31T19:41:01;18.40;76.40
81726;DHT22;71135;16.738;-14.648;2023-07-31T19:43:30;18.30;76.40
81726;DHT22;71135;16.738;-14.648;2023-07-31T19:45:59;18.20;76.20
81726;DHT22;71135;16.738;-14.648;2023-07-31T19:48:28;18.10;76.00
81726;DHT22;71135;16.738;-14.648;2023-07-31T19:50:57;18.10;75.80
81726;DHT22;71135;16.738;-14.648;2023-07-31T19:53:28;18.00;76.00
81726;DHT22;71135;16.738;-14.648;2023-07-31T19:56:00;18.00;76.10
81726;DHT22;71135;16.738;-14.648;2023-07-31T19:58:30;17.90;76.20
81726;DHT22;71135;16.738;-14.648;2023-07-31T20:01:09;17.80;76.30
81726;DHT22;71135;16.738;-14.648;2023-07-31T20:03:38;17.80;76.40
81726;DHT22;71135;16.738;-14.648;2023-07-31T20:06:07;17.80;76.30
81726;DHT22;71135;16.738;-14.648;2023-07-31T20:08:41;17.80;76.50
81726;DHT22;71135;16.738;-14.648;2023-07-31T20:11:13;17.80;76.70
81726;DHT22;71135;16.738;-14.648;2023-07-31T20:13:43;17.80;76.70
81726;DHT22;71135;16.738;-14.648;2023-07-31T20:16:16;17.80;76.70
81726;DHT22;71135;16.738;-14.648;2023-07-31T20:18:46;17.80;76.80
81726;DHT22;71135;16.738;-14.648;2023-07-31T20:21:17;17.80;76.80
81726;DHT22;71135;16.738;-14.648;2023-07-31T20:23:47;17.80;76.80
81726;DHT22;71135;16.738;-14.648;2023-07-31T20:26:19;17.80;76.80
81726;DHT22;71135;16.738;-14.648;2023-07-31T20:28:48;17.80;76.90
81726;DHT22;71135;16.738;-14.648;2023-07-31T20:31:18;17.90;76.90
81726;DHT22;71135;16.738;-14.648;2023-07-31T20:33:47;17.90;77.00
81726;DHT22;71135;16.738;-14.648;2023-07-31T20:36:17;17.90;77.00